createdAt,value
2022-10-26T00:01:23.256Z,619.00
2022-10-26T00:06:20.315Z,627.00
2022-10-26T00:11:18.568Z,605.00
2022-10-26T00:16:17.803Z,601.00
2022-10-26T00:21:17.999Z,600.00
2022-10-26T00:26:17.213Z,595.00
2022-10-26T00:31:17.441Z,588.00
2022-10-26T00:36:16.714Z,599.00
2022-10-26T00:41:15.820Z,603.00
2022-10-26T00:46:14.041Z,598.00
2022-10-26T00:51:17.261Z,616.00
2022-10-26T00:56:14.440Z,596.00
2022-10-26T01:01:12.792Z,597.00
2022-10-26T01:06:10.790Z,597.00
2022-10-26T01:11:10.963Z,591.00
2022-10-26T01:16:11.137Z,588.00
2022-10-26T01:21:09.300Z,590.00
2022-10-26T01:26:06.492Z,608.00
2022-10-26T01:31:05.699Z,583.00
2022-10-26T01:36:08.957Z,588.00
2022-10-26T01:41:06.183Z,587.00
2022-10-26T01:46:04.408Z,599.00
2022-10-26T01:51:03.678Z,597.00
2022-10-26T01:56:03.818Z,607.00
2022-10-26T02:01:03.349Z,602.00
2022-10-26T02:06:02.305Z,591.00
2022-10-26T02:11:01.604Z,588.00
2022-10-26T02:16:00.924Z,595.00
2022-10-26T02:20:59.041Z,593.00
2022-10-26T02:25:58.344Z,601.00
2022-10-26T02:30:59.653Z,601.00
2022-10-26T02:35:56.992Z,603.00
2022-10-26T02:40:56.085Z,586.00
2022-10-26T02:45:54.423Z,589.00
2022-10-26T02:50:54.754Z,603.00
2022-10-26T02:55:54.879Z,608.00
2022-10-26T03:00:57.199Z,617.00
2022-10-26T03:05:53.522Z,601.00
2022-10-26T03:10:51.841Z,619.00
2022-10-26T03:15:51.131Z,624.00
2022-10-26T03:20:51.428Z,590.00
2022-10-26T03:25:49.748Z,581.00
2022-10-26T03:30:50.061Z,584.00
2022-10-26T03:35:49.348Z,575.00
2022-10-26T03:40:47.689Z,581.00
2022-10-26T03:45:46.856Z,575.00
2022-10-26T03:50:46.014Z,595.00
2022-10-26T03:55:45.147Z,583.00
2022-10-26T04:00:45.281Z,575.00
2022-10-26T04:05:43.613Z,585.00
2022-10-26T04:10:42.818Z,586.00
2022-10-26T04:15:43.987Z,591.00
2022-10-26T04:20:43.293Z,580.00
2022-10-26T04:25:40.619Z,594.00
2022-10-26T04:30:39.757Z,587.00
2022-10-26T04:35:38.902Z,582.00
2022-10-26T04:40:38.030Z,583.00
2022-10-26T04:45:37.196Z,584.00
2022-10-26T04:50:36.305Z,580.00
2022-10-26T04:55:35.636Z,581.00
2022-10-26T05:00:34.767Z,579.00
2022-10-26T05:05:35.083Z,578.00
2022-10-26T05:10:33.391Z,583.00
2022-10-26T05:15:32.860Z,583.00
2022-10-26T05:20:31.955Z,585.00
2022-10-26T05:25:31.288Z,588.00
2022-10-26T05:30:28.613Z,566.00
2022-10-26T05:35:28.975Z,554.00
2022-10-26T05:40:29.264Z,567.00
2022-10-26T05:45:28.584Z,561.00
2022-10-26T05:50:27.923Z,559.00
2022-10-26T05:55:27.029Z,560.00
2022-10-26T06:00:25.321Z,562.00
2022-10-26T06:05:25.650Z,563.00
2022-10-26T06:10:25.008Z,570.00
2022-10-26T06:15:25.328Z,557.00
2022-10-26T06:20:24.649Z,576.00
2022-10-26T06:25:22.980Z,578.00
2022-10-26T06:30:22.305Z,579.00
2022-10-26T06:35:21.471Z,567.00
2022-10-26T06:40:20.770Z,570.00
2022-10-26T06:45:20.126Z,565.00
2022-10-26T06:50:19.235Z,579.00
2022-10-26T06:55:18.531Z,543.00
2022-10-26T07:00:21.036Z,553.00
2022-10-26T07:05:18.163Z,560.00
2022-10-26T07:10:17.498Z,583.00
2022-10-26T07:15:15.794Z,568.00
2022-10-26T07:20:16.153Z,574.00
2022-10-26T07:25:14.271Z,576.00
2022-10-26T07:30:14.604Z,572.00
2022-10-26T07:35:12.888Z,577.00
2022-10-26T07:40:12.216Z,572.00
2022-10-26T07:45:11.332Z,572.00
2022-10-26T07:50:11.631Z,560.00
2022-10-26T07:55:09.901Z,596.00
2022-10-26T08:00:09.203Z,573.00
2022-10-26T08:05:08.517Z,589.00
2022-10-26T08:10:07.823Z,623.00
2022-10-26T08:15:07.155Z,621.00
2022-10-26T08:20:08.448Z,634.00
2022-10-26T08:25:06.732Z,620.00
2022-10-26T08:30:05.010Z,589.00
2022-10-26T08:35:05.322Z,582.00
2022-10-26T08:40:04.661Z,576.00
2022-10-26T08:45:02.931Z,607.00
2022-10-26T08:50:03.223Z,580.00
2022-10-26T08:55:01.501Z,598.00
2022-10-26T09:00:02.806Z,583.00
2022-10-26T09:05:00.148Z,612.00
2022-10-26T09:10:00.308Z,600.00
2022-10-26T09:14:59.392Z,608.00
2022-10-26T09:19:57.712Z,589.00
2022-10-26T09:24:57.013Z,597.00
2022-10-26T09:29:56.346Z,590.00
2022-10-26T09:34:55.641Z,591.00
2022-10-26T09:39:56.924Z,600.00
2022-10-26T09:44:55.186Z,615.00
2022-10-26T09:49:54.456Z,582.00
2022-10-26T09:54:54.710Z,612.00
2022-10-26T09:59:52.970Z,573.00
2022-10-26T10:04:51.242Z,586.00
2022-10-26T10:09:51.529Z,572.00
2022-10-26T10:14:49.793Z,568.00
2022-10-26T10:19:51.097Z,559.00
2022-10-26T10:24:49.387Z,560.00
2022-10-26T10:29:47.712Z,555.00
2022-10-26T10:34:47.093Z,552.00
2022-10-26T10:39:46.195Z,564.00
2022-10-26T10:44:46.491Z,545.00
2022-10-26T10:49:44.786Z,576.00
2022-10-26T10:54:44.087Z,575.00
2022-10-26T10:59:43.390Z,587.00
2022-10-26T11:04:44.723Z,599.00
2022-10-26T11:09:44.168Z,633.00
2022-10-26T11:14:43.262Z,622.00
2022-10-26T11:19:41.464Z,607.00
2022-10-26T11:24:39.795Z,609.00
2022-10-26T11:29:39.863Z,618.00
2022-10-26T11:34:38.147Z,618.00
2022-10-26T11:39:37.276Z,604.00
2022-10-26T11:44:37.410Z,603.00
2022-10-26T11:49:36.713Z,591.00
2022-10-26T11:54:36.149Z,587.00
2022-10-26T11:59:36.281Z,584.00
2022-10-26T12:04:35.587Z,585.00
2022-10-26T12:09:35.593Z,576.00
2022-10-26T12:14:32.209Z,583.00
2022-10-26T12:19:32.530Z,574.00
2022-10-26T12:24:31.878Z,567.00
2022-10-26T12:29:30.148Z,567.00
2022-10-26T12:34:30.425Z,567.00
2022-10-26T12:39:28.705Z,558.00
2022-10-26T12:44:28.001Z,565.00
2022-10-26T12:49:26.311Z,605.00
2022-10-26T12:54:26.634Z,597.00
2022-10-26T12:59:26.942Z,608.00
2022-10-26T13:04:25.260Z,607.00
2022-10-26T13:09:24.544Z,632.00
2022-10-26T13:14:23.852Z,625.00
2022-10-26T13:19:24.230Z,627.00
2022-10-26T13:24:23.305Z,635.00
2022-10-26T13:29:22.594Z,620.00
2022-10-26T13:34:20.801Z,639.00
2022-10-26T13:39:20.004Z,620.00
2022-10-26T13:44:20.419Z,621.00
2022-10-26T13:49:18.400Z,610.00
2022-10-26T13:54:17.628Z,581.00
2022-10-26T13:59:19.965Z,656.00
2022-10-26T14:04:16.133Z,627.00
2022-10-26T14:09:16.329Z,648.00
2022-10-26T14:14:15.523Z,625.00
2022-10-26T14:19:17.824Z,687.00
2022-10-26T14:24:13.063Z,653.00
2022-10-26T14:29:12.284Z,720.00
2022-10-26T14:34:11.477Z,644.00
2022-10-26T14:39:10.676Z,654.00
2022-10-26T14:44:09.881Z,635.00
2022-10-26T14:49:09.078Z,648.00
2022-10-26T14:54:08.272Z,636.00
2022-10-26T14:59:07.440Z,634.00
2022-10-26T15:04:06.668Z,615.00
2022-10-26T15:09:05.928Z,595.00
2022-10-26T15:14:07.121Z,603.00
2022-10-26T15:19:04.315Z,583.00
2022-10-26T15:24:05.528Z,589.00
2022-10-26T15:29:03.693Z,589.00
2022-10-26T15:34:01.877Z,581.00
2022-10-26T15:39:01.145Z,577.00
2022-10-26T15:44:01.332Z,574.00
2022-10-26T15:48:59.524Z,575.00
2022-10-26T15:53:58.675Z,583.00
2022-10-26T15:58:57.859Z,569.00
2022-10-26T16:03:57.098Z,570.00
2022-10-26T16:08:57.305Z,570.00
2022-10-26T16:13:58.377Z,565.00
2022-10-26T16:19:06.195Z,569.00
2022-10-26T16:23:54.257Z,583.00
2022-10-26T16:28:53.531Z,593.00
2022-10-26T16:33:53.551Z,606.00
2022-10-26T16:38:51.776Z,630.00
2022-10-26T16:43:51.243Z,615.00
2022-10-26T16:48:50.584Z,651.00
2022-10-26T16:53:49.436Z,607.00
2022-10-26T16:58:49.620Z,640.00
2022-10-26T17:03:49.760Z,654.00
2022-10-26T17:08:47.061Z,670.00
2022-10-26T17:13:48.574Z,642.00
2022-10-26T17:18:58.394Z,697.00
2022-10-26T17:23:45.623Z,647.00
2022-10-26T17:28:45.092Z,655.00
2022-10-26T17:33:44.477Z,655.00
2022-10-26T17:38:42.670Z,621.00
2022-10-26T17:43:45.916Z,666.00
2022-10-26T17:48:42.962Z,607.00
2022-10-26T17:53:40.308Z,632.00
2022-10-26T17:58:41.486Z,640.00
2022-10-26T18:03:39.688Z,630.00
2022-10-26T18:08:37.894Z,644.00
2022-10-26T18:13:38.076Z,611.00
2022-10-26T18:18:37.289Z,716.00
2022-10-26T18:23:36.453Z,733.00
2022-10-26T18:28:36.429Z,719.00
2022-10-26T18:33:33.830Z,713.00
2022-10-26T18:38:33.319Z,786.00
2022-10-26T18:43:34.370Z,736.00
2022-10-26T18:48:33.574Z,723.00
2022-10-26T18:53:29.787Z,775.00
2022-10-26T18:58:31.012Z,757.00
2022-10-26T19:03:33.988Z,759.00
2022-10-26T19:08:28.091Z,777.00
2022-10-26T19:13:31.799Z,723.00
2022-10-26T19:18:27.025Z,727.00
2022-10-26T19:23:25.931Z,653.00
2022-10-26T19:28:26.165Z,650.00
2022-10-26T19:33:24.794Z,676.00
2022-10-26T19:38:25.766Z,651.00
2022-10-26T19:43:23.307Z,656.00
2022-10-26T19:48:22.509Z,641.00
2022-10-26T19:53:23.619Z,636.00
2022-10-26T19:58:20.692Z,637.00
2022-10-26T20:03:20.231Z,669.00
2022-10-26T20:08:24.391Z,682.00
2022-10-26T20:13:19.341Z,671.00
2022-10-26T20:18:28.856Z,679.00
2022-10-26T20:23:17.649Z,679.00
2022-10-26T20:28:16.144Z,698.00
2022-10-26T20:33:15.364Z,700.00
2022-10-26T20:38:14.577Z,683.00
2022-10-26T20:43:16.493Z,646.00
2022-10-26T20:48:13.888Z,660.00
2022-10-26T20:53:11.878Z,707.00
2022-10-26T20:58:12.396Z,676.00
2022-10-26T21:03:10.236Z,689.00
2022-10-26T21:08:10.460Z,676.00
2022-10-26T21:13:10.643Z,665.00
2022-10-26T21:18:07.830Z,739.00
2022-10-26T21:23:08.038Z,644.00
2022-10-26T21:28:06.235Z,675.00
2022-10-26T21:33:06.480Z,700.00
2022-10-26T21:38:04.675Z,696.00
2022-10-26T21:43:03.858Z,723.00
2022-10-26T21:48:03.090Z,737.00
2022-10-26T21:53:03.278Z,718.00
2022-10-26T21:58:02.491Z,713.00
2022-10-26T22:03:02.650Z,572.00
2022-10-26T22:08:00.822Z,676.00
2022-10-26T22:12:58.023Z,653.00
2022-10-26T22:17:57.192Z,635.00
2022-10-26T22:22:58.401Z,643.00
2022-10-26T22:27:57.578Z,617.00
2022-10-26T22:32:57.739Z,635.00
2022-10-26T22:37:54.946Z,605.00
2022-10-26T22:42:54.264Z,592.00
2022-10-26T22:47:53.275Z,620.00
2022-10-26T22:52:52.671Z,683.00
2022-10-26T22:57:51.866Z,636.00
2022-10-26T23:02:52.927Z,635.00
2022-10-26T23:07:50.241Z,639.00
2022-10-26T23:12:50.462Z,632.00
2022-10-26T23:17:49.026Z,628.00
2022-10-26T23:22:48.127Z,601.00
2022-10-26T23:27:49.283Z,613.00
2022-10-26T23:32:47.543Z,615.00
2022-10-26T23:37:45.763Z,606.00
2022-10-26T23:42:44.946Z,609.00
2022-10-26T23:47:44.123Z,606.00
2022-10-26T23:52:44.316Z,593.00
2022-10-26T23:57:42.481Z,593.00
